Time;durP1;ratioP1;P1;durP2;ratioP2;P2;SDS_P1;SDS_P2;PMS_P1;PMS_P2;Temp;Humidity;BMP_temperature;BMP_pressure;BME280_temperature;BME280_humidity;BME280_pressure;Samples;Min_cycle;Max_cycle;Signal;HPM_P1;HPM_P2
2022/08/02 00:01:23;;;;;;;5.90;3.22;;;;;;;;;;4918428;29;20036;-48
2022/08/02 00:03:49;;;;;;;4.00;3.25;;;;;;;;;;4918493;29;20377;-47
2022/08/02 00:06:14;;;;;;;9.98;3.40;;;;;;;;;;4918109;29;20032;-47
2022/08/02 00:08:39;;;;;;;4.68;3.30;;;;;;;;;;4918057;29;20032;-48
2022/08/02 00:11:05;;;;;;;3.30;2.90;;;;;;;;;;4918324;29;20028;-48
2022/08/02 00:13:30;;;;;;;5.50;3.33;;;;;;;;;;4917948;29;20449;-50
2022/08/02 00:15:56;;;;;;;4.00;3.20;;;;;;;;;;4918189;29;20036;-47
2022/08/02 00:18:21;;;;;;;7.50;3.33;;;;;;;;;;4917853;29;20055;-48
2022/08/02 00:20:47;;;;;;;9.13;3.38;;;;;;;;;;4918139;29;20036;-46
2022/08/02 00:23:12;;;;;;;7.35;3.35;;;;;;;;;;4918106;29;20031;-47
2022/08/02 00:25:38;;;;;;;6.63;3.38;;;;;;;;;;4918054;29;20473;-49
2022/08/02 00:28:03;;;;;;;5.57;3.33;;;;;;;;;;4918005;29;20028;-48
2022/08/02 00:30:28;;;;;;;3.58;2.95;;;;;;;;;;4917932;29;20507;-45
2022/08/02 00:32:54;;;;;;;7.07;3.50;;;;;;;;;;4917564;29;20036;-45
2022/08/02 00:35:19;;;;;;;7.80;3.60;;;;;;;;;;4917557;29;20072;-44
2022/08/02 00:37:45;;;;;;;3.63;3.10;;;;;;;;;;4917850;29;20036;-46
2022/08/02 00:40:10;;;;;;;5.45;3.22;;;;;;;;;;4917300;29;20406;-46
2022/08/02 00:42:37;;;;;;;3.25;2.95;;;;;;;;;;4917766;29;20032;-47
2022/08/02 00:45:03;;;;;;;5.38;3.20;;;;;;;;;;4917418;29;20469;-49
2022/08/02 00:47:28;;;;;;;3.35;3.05;;;;;;;;;;4917330;29;20035;-48
2022/08/02 00:49:54;;;;;;;7.50;3.15;;;;;;;;;;4917111;29;20424;-47
2022/08/02 00:52:22;;;;;;;3.95;3.55;;;;;;;;;;4917536;29;20043;-50
2022/08/02 00:54:48;;;;;;;4.93;3.42;;;;;;;;;;4916337;29;20044;-50
2022/08/02 00:57:13;;;;;;;4.70;3.50;;;;;;;;;;4917510;29;20099;-50
2022/08/02 00:59:40;;;;;;;3.83;3.40;;;;;;;;;;4917471;29;20107;-47
2022/08/02 01:02:06;;;;;;;9.35;3.78;;;;;;;;;;4917362;29;20032;-48
2022/08/02 01:04:31;;;;;;;3.90;3.50;;;;;;;;;;4917077;29;20054;-47
2022/08/02 01:06:57;;;;;;;4.07;3.67;;;;;;;;;;4917348;29;20036;-48
2022/08/02 01:09:22;;;;;;;4.28;3.97;;;;;;;;;;4916969;29;20473;-48
2022/08/02 01:11:48;;;;;;;7.85;3.78;;;;;;;;;;4917230;29;20024;-48
2022/08/02 01:14:14;;;;;;;4.20;3.85;;;;;;;;;;4916864;29;20127;-47
2022/08/02 01:16:51;;;;;;;5.18;4.00;;;;;;;;;;4916852;29;20032;-48
2022/08/02 01:19:38;;;;;;;5.50;3.50;;;;;;;;;;4916974;29;20115;-47
2022/08/02 01:22:42;;;;;;;8.40;3.58;;;;;;;;;;4917096;29;20035;-48
2022/08/02 01:25:28;;;;;;;6.78;3.60;;;;;;;;;;4910785;29;20124;-46
2022/08/02 01:28:18;;;;;;;4.35;3.60;;;;;;;;;;4917090;29;20043;-48
2022/08/02 01:30:47;;;;;;;6.93;3.75;;;;;;;;;;4916695;29;20567;-48
2022/08/02 01:33:16;;;;;;;5.22;3.25;;;;;;;;;;4916639;29;20040;-45
2022/08/02 01:35:46;;;;;;;7.25;3.63;;;;;;;;;;4915438;29;20024;-46
2022/08/02 01:38:36;;;;;;;4.10;3.73;;;;;;;;;;4916619;29;20036;-48
2022/08/02 01:41:04;;;;;;;4.35;3.67;;;;;;;;;;4916881;29;20301;-47
2022/08/02 01:43:32;;;;;;;4.75;3.53;;;;;;;;;;4916474;29;20035;-48
2022/08/02 01:46:00;;;;;;;4.95;3.58;;;;;;;;;;4916849;29;20131;-48
2022/08/02 01:48:30;;;;;;;10.95;4.05;;;;;;;;;;4916233;29;20493;-42
2022/08/02 01:50:59;;;;;;;5.53;3.53;;;;;;;;;;4916085;29;20056;-47
2022/08/02 01:53:27;;;;;;;4.20;3.80;;;;;;;;;;4916342;29;20051;-45
2022/08/02 01:55:57;;;;;;;7.68;4.03;;;;;;;;;;4915885;29;20088;-44
2022/08/02 01:58:25;;;;;;;7.88;4.00;;;;;;;;;;4916483;29;20119;-44
2022/08/02 02:00:54;;;;;;;7.38;3.92;;;;;;;;;;4916264;29;20035;-46
2022/08/02 02:03:22;;;;;;;6.17;4.40;;;;;;;;;;4916239;29;20036;-41
2022/08/02 02:05:48;;;;;;;7.10;3.97;;;;;;;;;;4916520;29;20036;-43
2022/08/02 02:08:17;;;;;;;7.93;3.88;;;;;;;;;;4916515;29;20040;-40
2022/08/02 02:10:44;;;;;;;9.07;3.90;;;;;;;;;;4916462;29;20039;-40
2022/08/02 02:13:16;;;;;;;8.45;3.83;;;;;;;;;;4916357;29;20050;-40
2022/08/02 02:15:47;;;;;;;10.75;3.95;;;;;;;;;;4916368;29;20056;-41
2022/08/02 02:18:28;;;;;;;11.07;3.88;;;;;;;;;;4916172;29;20585;-44
2022/08/02 02:20:54;;;;;;;5.43;3.78;;;;;;;;;;4916161;29;20032;-45
2022/08/02 02:23:20;;;;;;;4.18;3.70;;;;;;;;;;4916431;29;20373;-45
2022/08/02 02:25:46;;;;;;;12.00;4.00;;;;;;;;;;4916034;29;20024;-46
2022/08/02 02:28:15;;;;;;;4.00;3.60;;;;;;;;;;4916300;29;20055;-47
2022/08/02 02:30:46;;;;;;;16.70;5.05;;;;;;;;;;4915997;29;20039;-47
2022/08/02 02:33:15;;;;;;;41.95;5.85;;;;;;;;;;4916181;29;20036;-48
2022/08/02 02:35:43;;;;;;;35.92;6.32;;;;;;;;;;4916254;29;20096;-48
2022/08/02 02:38:12;;;;;;;14.70;4.82;;;;;;;;;;4915898;29;20028;-46
2022/08/02 02:40:39;;;;;;;14.50;4.50;;;;;;;;;;4915955;29;20496;-48
2022/08/02 02:43:07;;;;;;;4.95;4.13;;;;;;;;;;4916199;29;20031;-46
2022/08/02 02:45:33;;;;;;;5.72;4.38;;;;;;;;;;4916183;29;20126;-48
2022/08/02 02:48:01;;;;;;;9.57;4.50;;;;;;;;;;4915903;29;20035;-49
2022/08/02 02:50:27;;;;;;;7.35;4.20;;;;;;;;;;4915956;29;20036;-49
2022/08/02 02:52:53;;;;;;;5.32;4.35;;;;;;;;;;4915776;29;20123;-50
2022/08/02 02:55:18;;;;;;;7.07;4.13;;;;;;;;;;4915933;29;20111;-41
2022/08/02 02:57:45;;;;;;;10.38;4.47;;;;;;;;;;4915796;29;20455;-41
2022/08/02 03:00:13;;;;;;;5.82;4.18;;;;;;;;;;4916050;29;20044;-41
2022/08/02 03:02:40;;;;;;;7.93;4.35;;;;;;;;;;4918397;29;20432;-40
2022/08/02 03:05:07;;;;;;;5.75;4.43;;;;;;;;;;4919208;29;20039;-40
2022/08/02 03:07:33;;;;;;;5.25;3.90;;;;;;;;;;4919180;29;20024;-40
2022/08/02 03:09:59;;;;;;;5.38;4.45;;;;;;;;;;4919438;29;20156;-46
2022/08/02 03:12:26;;;;;;;6.13;3.78;;;;;;;;;;4919407;29;20024;-49
2022/08/02 03:14:52;;;;;;;7.80;5.28;;;;;;;;;;4919082;29;20032;-41
2022/08/02 03:17:18;;;;;;;8.70;5.30;;;;;;;;;;4919243;29;20032;-45
2022/08/02 03:19:44;;;;;;;5.72;5.10;;;;;;;;;;4919034;29;20031;-48
2022/08/02 03:22:10;;;;;;;5.85;5.05;;;;;;;;;;4919253;29;20031;-48
2022/08/02 03:24:36;;;;;;;7.72;5.00;;;;;;;;;;4918957;29;20024;-52
2022/08/02 03:27:01;;;;;;;6.57;4.90;;;;;;;;;;4918949;29;20035;-48
2022/08/02 03:29:27;;;;;;;8.63;5.22;;;;;;;;;;4919159;29;20084;-48
2022/08/02 03:31:52;;;;;;;6.85;4.90;;;;;;;;;;4918761;29;20080;-48
2022/08/02 03:34:18;;;;;;;9.55;5.03;;;;;;;;;;4918949;29;20032;-48
2022/08/02 03:36:47;;;;;;;5.70;5.13;;;;;;;;;;4918664;29;20036;-45
2022/08/02 03:39:12;;;;;;;5.80;4.47;;;;;;;;;;4918698;29;20094;-40
2022/08/02 03:41:39;;;;;;;7.63;4.90;;;;;;;;;;4918869;29;20064;-40
2022/08/02 03:44:06;;;;;;;5.70;4.95;;;;;;;;;;4918508;29;20521;-47
2022/08/02 03:46:33;;;;;;;6.68;5.05;;;;;;;;;;4918338;29;20028;-46
2022/08/02 03:48:59;;;;;;;8.65;4.80;;;;;;;;;;4918319;29;20500;-48
2022/08/02 03:51:25;;;;;;;6.90;4.70;;;;;;;;;;4918684;29;20032;-46
2022/08/02 03:53:51;;;;;;;6.82;4.50;;;;;;;;;;4918295;29;20036;-46
2022/08/02 03:56:17;;;;;;;7.75;4.47;;;;;;;;;;4918360;29;20020;-46
2022/08/02 03:58:43;;;;;;;6.18;4.40;;;;;;;;;;4918594;29;20021;-48
2022/08/02 04:01:09;;;;;;;5.25;4.53;;;;;;;;;;4918513;29;20051;-47
2022/08/02 04:03:34;;;;;;;7.50;4.72;;;;;;;;;;4918496;29;20481;-49
2022/08/02 04:05:59;;;;;;;11.07;4.88;;;;;;;;;;4918183;29;20446;-45
2022/08/02 04:08:25;;;;;;;12.65;4.50;;;;;;;;;;4918418;29;20036;-44
2022/08/02 04:13:35;;;;;;;7.88;4.50;;;;;;;;;;4917569;29;20512;-48
2022/08/02 04:16:19;;;;;;;10.82;4.47;;;;;;;;;;4918355;29;20028;-45
2022/08/02 04:18:54;;;;;;;7.00;3.90;;;;;;;;;;4918308;29;20024;-49
2022/08/02 04:21:23;;;;;;;6.50;4.25;;;;;;;;;;4918123;29;20028;-49
2022/08/02 04:23:49;;;;;;;8.88;4.78;;;;;;;;;;4917925;29;20028;-51
2022/08/02 04:26:16;;;;;;;5.13;4.18;;;;;;;;;;4917774;29;20028;-52
2022/08/02 04:28:42;;;;;;;4.28;3.88;;;;;;;;;;4916597;29;20127;-50
2022/08/02 04:31:08;;;;;;;7.43;4.13;;;;;;;;;;4917568;29;20080;-51
2022/08/02 04:33:35;;;;;;;6.00;3.38;;;;;;;;;;4917917;29;20393;-46
2022/08/02 04:36:01;;;;;;;5.25;3.47;;;;;;;;;;4917907;29;20039;-46
2022/08/02 04:38:26;;;;;;;9.38;4.13;;;;;;;;;;4917586;29;20024;-49
2022/08/02 04:40:54;;;;;;;5.38;3.80;;;;;;;;;;4917475;29;20080;-42
2022/08/02 04:43:20;;;;;;;12.43;3.72;;;;;;;;;;4917726;29;20028;-43
2022/08/02 04:45:48;;;;;;;4.55;3.53;;;;;;;;;;4917536;29;20045;-49
2022/08/02 04:48:13;;;;;;;4.93;3.50;;;;;;;;;;4917443;29;20044;-53
2022/08/02 04:50:39;;;;;;;9.32;4.00;;;;;;;;;;4917658;29;20028;-50
2022/08/02 04:53:04;;;;;;;6.53;3.28;;;;;;;;;;4917255;29;20032;-47
2022/08/02 04:55:30;;;;;;;9.52;3.50;;;;;;;;;;4917544;29;20028;-49
2022/08/02 04:57:57;;;;;;;6.07;3.10;;;;;;;;;;4917341;29;20508;-47
2022/08/02 05:00:24;;;;;;;12.10;3.67;;;;;;;;;;4917257;29;20499;-49
2022/08/02 05:02:51;;;;;;;6.38;3.45;;;;;;;;;;4917219;29;20055;-50
2022/08/02 05:05:17;;;;;;;4.07;3.50;;;;;;;;;;4917397;29;20056;-52
2022/08/02 05:07:43;;;;;;;6.00;3.50;;;;;;;;;;4917339;29;20088;-50
2022/08/02 05:10:09;;;;;;;8.65;3.55;;;;;;;;;;4916890;29;20426;-53
2022/08/02 05:12:37;;;;;;;7.65;3.90;;;;;;;;;;4916818;29;20473;-49
2022/08/02 05:15:02;;;;;;;6.85;3.95;;;;;;;;;;4917149;29;20024;-43
2022/08/02 05:17:28;;;;;;;9.10;3.45;;;;;;;;;;4916284;29;20385;-52
2022/08/02 05:19:53;;;;;;;6.13;3.53;;;;;;;;;;4916809;29;20362;-48
2022/08/02 05:22:18;;;;;;;7.10;3.50;;;;;;;;;;4916710;29;20020;-43
2022/08/02 05:24:44;;;;;;;10.48;3.80;;;;;;;;;;4914925;29;20035;-45
2022/08/02 05:27:09;;;;;;;7.55;3.88;;;;;;;;;;4914637;29;20068;-48
2022/08/02 05:29:35;;;;;;;9.77;4.38;;;;;;;;;;4915058;29;20032;-49
2022/08/02 05:32:01;;;;;;;11.10;4.53;;;;;;;;;;4915069;29;20529;-43
2022/08/02 05:34:27;;;;;;;7.68;3.40;;;;;;;;;;4916689;29;20036;-42
2022/08/02 05:36:52;;;;;;;6.75;3.88;;;;;;;;;;4916554;29;20573;-44
2022/08/02 05:39:18;;;;;;;6.72;3.67;;;;;;;;;;4915310;29;20088;-41
2022/08/02 05:41:43;;;;;;;5.97;4.60;;;;;;;;;;4916447;29;20060;-41
2022/08/02 05:44:09;;;;;;;20.35;17.02;;;;;;;;;;4916528;29;20071;-46
2022/08/02 05:46:34;;;;;;;9.20;4.13;;;;;;;;;;4916501;29;20111;-49
2022/08/02 05:49:00;;;;;;;10.23;4.13;;;;;;;;;;4915969;29;20055;-46
2022/08/02 05:51:28;;;;;;;7.78;3.80;;;;;;;;;;4916611;29;20497;-42
2022/08/02 05:54:30;;;;;;;6.18;4.43;;;;;;;;;;4916243;29;20028;-47
2022/08/02 05:57:04;;;;;;;8.25;4.68;;;;;;;;;;4904105;29;20126;-47
2022/08/02 05:59:45;;;;;;;6.43;4.30;;;;;;;;;;4916636;29;20107;-47
2022/08/02 06:02:29;;;;;;;8.10;4.28;;;;;;;;;;4916258;29;20473;-45
2022/08/02 06:05:10;;;;;;;5.15;4.03;;;;;;;;;;4916293;29;20164;-43
2022/08/02 06:07:36;;;;;;;7.93;4.78;;;;;;;;;;4916418;29;20440;-47
2022/08/02 06:10:04;;;;;;;4.72;4.38;;;;;;;;;;4916442;29;20025;-42
2022/08/02 06:12:32;;;;;;;6.15;4.20;;;;;;;;;;4916447;29;20028;-41
2022/08/02 06:15:03;;;;;;;4.75;4.28;;;;;;;;;;4916324;29;20028;-42
2022/08/02 06:17:29;;;;;;;6.38;4.70;;;;;;;;;;4916305;29;20035;-43
2022/08/02 06:19:57;;;;;;;5.97;4.45;;;;;;;;;;4916039;29;20500;-42
2022/08/02 06:22:25;;;;;;;4.57;3.90;;;;;;;;;;4916096;29;20107;-47
2022/08/02 06:24:53;;;;;;;4.95;4.05;;;;;;;;;;4916416;29;20043;-47
2022/08/02 06:27:20;;;;;;;6.07;4.50;;;;;;;;;;4916084;29;20469;-45
2022/08/02 06:29:48;;;;;;;6.68;4.50;;;;;;;;;;4916313;29;20032;-42
2022/08/02 06:32:19;;;;;;;5.40;4.18;;;;;;;;;;4916241;29;20054;-43
2022/08/02 06:34:45;;;;;;;5.20;4.35;;;;;;;;;;4916023;29;20118;-45
2022/08/02 06:37:11;;;;;;;5.60;4.05;;;;;;;;;;4917942;29;20566;-45
2022/08/02 06:40:17;;;;;;;6.78;3.80;;;;;;;;;;4919863;29;20103;-42
2022/08/02 06:43:11;;;;;;;6.75;4.22;;;;;;;;;;4919959;29;20032;-44
2022/08/02 06:45:37;;;;;;;15.32;4.30;;;;;;;;;;4919784;29;20560;-44
2022/08/02 06:48:03;;;;;;;6.22;3.55;;;;;;;;;;4918750;29;20039;-44
2022/08/02 06:50:29;;;;;;;4.07;3.58;;;;;;;;;;4917415;29;20032;-43
2022/08/02 06:52:55;;;;;;;5.53;3.45;;;;;;;;;;4917972;29;20032;-46
2022/08/02 06:55:21;;;;;;;4.50;3.60;;;;;;;;;;4918318;29;20543;-44
2022/08/02 06:57:46;;;;;;;8.25;3.45;;;;;;;;;;4917709;29;20075;-41
2022/08/02 07:00:12;;;;;;;6.05;3.95;;;;;;;;;;4918105;29;20083;-45
2022/08/02 07:02:41;;;;;;;6.13;3.20;;;;;;;;;;4918123;29;20028;-46
2022/08/02 07:05:08;;;;;;;6.40;3.08;;;;;;;;;;4919180;29;20028;-44
2022/08/02 07:07:33;;;;;;;7.78;3.20;;;;;;;;;;4919463;29;20032;-47
2022/08/02 07:09:59;;;;;;;7.18;3.20;;;;;;;;;;4919117;29;20043;-47
2022/08/02 07:12:25;;;;;;;8.48;2.72;;;;;;;;;;4919115;29;20532;-44
2022/08/02 07:14:50;;;;;;;5.07;2.60;;;;;;;;;;4919255;29;20083;-48
2022/08/02 07:17:16;;;;;;;4.10;2.55;;;;;;;;;;4919314;29;20059;-45
2022/08/02 07:19:41;;;;;;;5.72;2.80;;;;;;;;;;4918851;29;20067;-42
2022/08/02 07:22:07;;;;;;;3.08;2.50;;;;;;;;;;4919007;29;20032;-46
2022/08/02 07:24:32;;;;;;;7.20;3.03;;;;;;;;;;4918923;29;20028;-45
2022/08/02 07:26:58;;;;;;;5.88;2.65;;;;;;;;;;4918836;29;20031;-47
2022/08/02 07:29:24;;;;;;;2.88;2.40;;;;;;;;;;4919062;29;20104;-46
2022/08/02 07:31:49;;;;;;;5.97;3.03;;;;;;;;;;4918192;29;20405;-46
2022/08/02 07:34:14;;;;;;;3.60;3.00;;;;;;;;;;4913012;29;20388;-44
2022/08/02 07:36:40;;;;;;;3.35;2.65;;;;;;;;;;4918567;29;20526;-46
2022/08/02 07:39:05;;;;;;;4.30;2.70;;;;;;;;;;4918622;29;20028;-50
2022/08/02 07:41:31;;;;;;;3.92;2.83;;;;;;;;;;4918525;29;20404;-43
2022/08/02 07:43:56;;;;;;;3.22;2.92;;;;;;;;;;4918598;29;20027;-44
2022/08/02 07:46:21;;;;;;;2.72;2.50;;;;;;;;;;4918424;29;20032;-42
2022/08/02 07:48:47;;;;;;;3.40;3.10;;;;;;;;;;4917266;29;20055;-48
2022/08/02 07:51:13;;;;;;;4.35;2.72;;;;;;;;;;4918406;29;20592;-41
2022/08/02 07:53:38;;;;;;;4.35;3.22;;;;;;;;;;4918357;29;20083;-41
2022/08/02 07:56:04;;;;;;;3.40;3.10;;;;;;;;;;4918483;29;20032;-49
2022/08/02 07:58:29;;;;;;;3.25;2.90;;;;;;;;;;4918240;29;20087;-43
2022/08/02 08:00:55;;;;;;;3.63;2.70;;;;;;;;;;4918428;29;20035;-49
2022/08/02 08:03:20;;;;;;;2.83;2.63;;;;;;;;;;4918197;29;20496;-46
2022/08/02 08:05:46;;;;;;;3.47;2.40;;;;;;;;;;4918158;29;20512;-44
2022/08/02 08:08:11;;;;;;;2.90;2.70;;;;;;;;;;4917153;29;20243;-48
2022/08/02 08:10:39;;;;;;;2.70;2.50;;;;;;;;;;4917177;29;20039;-48
2022/08/02 08:13:05;;;;;;;7.53;2.92;;;;;;;;;;4918287;29;20083;-50
2022/08/02 08:15:30;;;;;;;7.80;2.30;;;;;;;;;;4918120;29;20020;-51
2022/08/02 08:17:55;;;;;;;2.60;2.40;;;;;;;;;;4918075;29;20024;-49
2022/08/02 08:20:21;;;;;;;4.30;2.22;;;;;;;;;;4916977;29;20028;-49
2022/08/02 08:22:47;;;;;;;8.98;2.60;;;;;;;;;;4918106;29;20038;-45
2022/08/02 08:25:12;;;;;;;7.25;2.72;;;;;;;;;;4918053;29;20028;-45
2022/08/02 08:27:47;;;;;;;3.55;2.30;;;;;;;;;;4917740;29;20134;-51
2022/08/02 08:30:12;;;;;;;2.88;2.00;;;;;;;;;;4917768;29;20032;-46
2022/08/02 08:32:37;;;;;;;3.85;2.28;;;;;;;;;;4917687;29;20039;-49
2022/08/02 08:35:05;;;;;;;3.45;2.20;;;;;;;;;;4917905;29;20028;-43
2022/08/02 08:37:34;;;;;;;6.50;2.40;;;;;;;;;;4917948;29;20130;-50
2022/08/02 08:40:00;;;;;;;3.72;1.98;;;;;;;;;;4917764;29;20044;-51
2022/08/02 08:42:26;;;;;;;3.20;2.25;;;;;;;;;;4917763;29;20096;-47
2022/08/02 08:44:52;;;;;;;3.85;1.95;;;;;;;;;;4917930;29;20060;-47
2022/08/02 08:47:21;;;;;;;4.75;2.20;;;;;;;;;;4917428;29;20049;-50
2022/08/02 08:49:51;;;;;;;5.90;2.30;;;;;;;;;;4916706;29;20504;-48
2022/08/02 08:52:18;;;;;;;5.30;2.10;;;;;;;;;;4917009;29;20036;-43
2022/08/02 08:54:47;;;;;;;4.13;2.20;;;;;;;;;;4917267;29;20032;-47
2022/08/02 08:57:14;;;;;;;7.88;1.90;;;;;;;;;;4917310;29;20028;-49
2022/08/02 08:59:40;;;;;;;3.13;2.00;;;;;;;;;;4916950;29;20028;-42
2022/08/02 09:02:05;;;;;;;2.20;2.03;;;;;;;;;;4917214;29;20035;-48
2022/08/02 09:04:31;;;;;;;2.55;2.10;;;;;;;;;;4917122;29;20024;-47
2022/08/02 09:06:57;;;;;;;4.00;2.30;;;;;;;;;;4917344;29;20032;-49
2022/08/02 09:09:23;;;;;;;2.47;2.10;;;;;;;;;;4916990;29;20115;-46
2022/08/02 09:11:48;;;;;;;5.65;2.10;;;;;;;;;;4917291;29;20568;-47
2022/08/02 09:14:26;;;;;;;1.85;1.70;;;;;;;;;;4917113;29;20028;-45
2022/08/02 09:16:52;;;;;;;4.55;2.30;;;;;;;;;;4916929;29;20032;-47
2022/08/02 09:19:23;;;;;;;4.05;1.85;;;;;;;;;;4917108;29;20043;-48
2022/08/02 09:21:50;;;;;;;4.55;2.22;;;;;;;;;;4916844;29;20031;-48
2022/08/02 09:24:21;;;;;;;2.80;2.13;;;;;;;;;;4917152;29;20039;-49
2022/08/02 09:26:48;;;;;;;6.20;1.92;;;;;;;;;;4916771;29;20092;-46
2022/08/02 09:29:15;;;;;;;3.13;1.80;;;;;;;;;;4916993;29;20035;-52
2022/08/02 09:31:41;;;;;;;3.38;2.15;;;;;;;;;;4916691;29;20351;-46
2022/08/02 09:34:07;;;;;;;2.45;1.83;;;;;;;;;;4916816;29;20055;-46
2022/08/02 09:36:41;;;;;;;4.07;2.35;;;;;;;;;;4916699;29;20469;-43
2022/08/02 09:39:10;;;;;;;3.80;2.00;;;;;;;;;;4916494;29;20032;-46
2022/08/02 09:41:41;;;;;;;2.00;1.90;;;;;;;;;;4915261;29;20036;-42
2022/08/02 09:44:09;;;;;;;10.40;1.80;;;;;;;;;;4915360;29;20103;-46
2022/08/02 09:46:38;;;;;;;6.30;1.90;;;;;;;;;;4915001;29;20047;-44
2022/08/02 09:49:07;;;;;;;2.65;2.15;;;;;;;;;;4914808;29;20048;-43
2022/08/02 09:51:53;;;;;;;3.83;1.98;;;;;;;;;;4914856;29;20039;-51
2022/08/02 09:54:25;;;;;;;3.95;2.13;;;;;;;;;;4914746;29;20040;-49
2022/08/02 09:56:57;;;;;;;4.60;2.25;;;;;;;;;;4914800;29;20074;-50
2022/08/02 09:59:24;;;;;;;2.90;2.03;;;;;;;;;;4915128;29;20032;-47
2022/08/02 10:01:52;;;;;;;2.17;1.80;;;;;;;;;;4914701;29;20036;-48
2022/08/02 10:04:23;;;;;;;2.95;2.00;;;;;;;;;;4913245;29;20039;-46
2022/08/02 10:06:50;;;;;;;3.55;1.92;;;;;;;;;;4915121;29;20164;-45
2022/08/02 10:09:16;;;;;;;1.85;1.60;;;;;;;;;;4914557;29;20039;-52
2022/08/02 10:11:41;;;;;;;5.63;1.75;;;;;;;;;;4917769;29;20032;-46
2022/08/02 10:14:09;;;;;;;3.45;1.80;;;;;;;;;;4921086;29;20036;-49
2022/08/02 10:16:44;;;;;;;2.60;1.83;;;;;;;;;;4921191;29;20024;-44
2022/08/02 10:19:10;;;;;;;2.00;1.80;;;;;;;;;;4921048;29;20020;-47
2022/08/02 10:22:01;;;;;;;2.08;1.88;;;;;;;;;;4920949;29;20115;-48
2022/08/02 10:24:29;;;;;;;3.78;1.75;;;;;;;;;;4921121;29;20028;-45
2022/08/02 10:26:56;;;;;;;2.33;1.60;;;;;;;;;;4920876;29;20385;-42
2022/08/02 10:29:36;;;;;;;2.00;1.70;;;;;;;;;;4921143;29;20047;-44
2022/08/02 10:32:25;;;;;;;3.20;1.80;;;;;;;;;;4920613;29;20051;-47
2022/08/02 10:35:12;;;;;;;3.55;1.70;;;;;;;;;;4914487;29;20062;-48
2022/08/02 10:37:38;;;;;;;2.83;1.55;;;;;;;;;;4920791;29;20044;-48
2022/08/02 10:40:05;;;;;;;2.30;2.10;;;;;;;;;;4921045;29;20028;-44
2022/08/02 10:42:48;;;;;;;1.80;1.70;;;;;;;;;;4920942;29;20030;-49
2022/08/02 10:45:16;;;;;;;2.03;1.92;;;;;;;;;;4920339;29;20107;-50
2022/08/02 10:47:59;;;;;;;1.60;1.50;;;;;;;;;;4920501;29;20384;-43
2022/08/02 10:50:51;;;;;;;3.15;1.75;;;;;;;;;;4918915;29;20048;-41
2022/08/02 10:53:22;;;;;;;1.98;1.60;;;;;;;;;;4919090;29;20036;-42
2022/08/02 10:55:48;;;;;;;2.38;1.70;;;;;;;;;;4919749;29;20032;-45
2022/08/02 10:58:21;;;;;;;1.52;1.42;;;;;;;;;;4919272;29;20436;-48
2022/08/02 11:00:48;;;;;;;3.83;2.97;;;;;;;;;;4919348;29;20600;-47
2022/08/02 11:03:32;;;;;;;3.20;1.80;;;;;;;;;;4919503;29;20075;-46
2022/08/02 11:06:06;;;;;;;2.85;1.60;;;;;;;;;;4919254;29;20043;-50
2022/08/02 11:08:32;;;;;;;1.67;1.55;;;;;;;;;;4919429;29;20125;-49
2022/08/02 11:11:00;;;;;;;2.42;1.73;;;;;;;;;;4919275;29;20032;-52
2022/08/02 11:13:27;;;;;;;1.48;1.38;;;;;;;;;;4919305;29;20702;-48
2022/08/02 11:16:03;;;;;;;2.83;1.63;;;;;;;;;;4919148;29;20024;-45
2022/08/02 11:18:50;;;;;;;4.00;1.67;;;;;;;;;;4919207;29;20039;-42
2022/08/02 11:21:27;;;;;;;6.22;1.70;;;;;;;;;;4919025;29;20032;-45
2022/08/02 11:23:54;;;;;;;2.90;1.80;;;;;;;;;;4916956;29;20028;-47
2022/08/02 11:26:31;;;;;;;1.92;1.73;;;;;;;;;;4916401;29;20036;-41
2022/08/02 11:28:58;;;;;;;1.92;1.73;;;;;;;;;;4916275;29;20039;-43
2022/08/02 11:31:24;;;;;;;3.40;1.80;;;;;;;;;;4915912;29;20070;-41
2022/08/02 11:33:50;;;;;;;5.07;2.08;;;;;;;;;;4916033;29;20121;-46
2022/08/02 11:36:16;;;;;;;2.22;1.95;;;;;;;;;;4915689;29;20062;-47
2022/08/02 11:38:42;;;;;;;4.90;1.80;;;;;;;;;;4916127;29;20091;-46
2022/08/02 11:41:09;;;;;;;2.13;1.90;;;;;;;;;;4915829;29;20040;-48
2022/08/02 11:43:35;;;;;;;3.83;1.90;;;;;;;;;;4916017;29;20043;-44
2022/08/02 11:46:11;;;;;;;3.63;2.30;;;;;;;;;;4914492;29;20397;-47
2022/08/02 11:48:39;;;;;;;4.60;1.90;;;;;;;;;;4915415;29;20052;-46
2022/08/02 11:51:15;;;;;;;11.60;2.40;;;;;;;;;;4915575;29;20028;-44
2022/08/02 11:53:51;;;;;;;5.47;1.90;;;;;;;;;;4914138;29;20481;-49
2022/08/02 11:56:25;;;;;;;2.35;2.00;;;;;;;;;;4915952;29;20115;-46
2022/08/02 11:59:07;;;;;;;2.97;1.85;;;;;;;;;;4915777;29;20028;-45
2022/08/02 12:01:34;;;;;;;3.08;1.63;;;;;;;;;;4915551;29;20492;-43
2022/08/02 12:04:02;;;;;;;1.70;1.60;;;;;;;;;;4915298;29;20051;-42
2022/08/02 12:06:29;;;;;;;3.65;1.70;;;;;;;;;;4915614;29;20070;-43
2022/08/02 12:09:13;;;;;;;1.58;1.45;;;;;;;;;;4915175;29;20028;-43
2022/08/02 12:11:40;;;;;;;3.38;1.50;;;;;;;;;;4915558;29;20032;-46
2022/08/02 12:14:06;;;;;;;4.07;1.52;;;;;;;;;;4915153;29;20078;-44
2022/08/02 12:19:30;;;;;;;;;;;;;;;;;;4915849;29;20083;-47
2022/08/02 12:22:18;;;;;;;2.55;2.35;;;;;;;;;;4915208;29;19919;-48
2022/08/02 12:24:47;;;;;;;9.13;1.92;;;;;;;;;;4914881;29;20056;-42
2022/08/02 12:27:39;;;;;;;2.60;1.60;;;;;;;;;;4916653;29;20029;-42
2022/08/02 12:30:07;;;;;;;3.75;1.80;;;;;;;;;;4912247;29;20123;-44
2022/08/02 12:32:33;;;;;;;1.60;1.50;;;;;;;;;;4896910;29;20044;-45
2022/08/02 12:35:12;;;;;;;3.70;2.10;;;;;;;;;;4896376;29;20041;-44
2022/08/02 12:37:40;;;;;;;2.50;1.73;;;;;;;;;;4897227;29;20413;-46
2022/08/02 12:40:23;;;;;;;2.83;1.67;;;;;;;;;;4897433;29;20024;-48
2022/08/02 12:42:53;;;;;;;6.72;2.10;;;;;;;;;;4896336;29;20037;-43
2022/08/02 12:45:19;;;;;;;1.60;1.50;;;;;;;;;;4897658;29;20017;-44
2022/08/02 12:47:50;;;;;;;3.08;1.58;;;;;;;;;;4897305;29;20039;-44
2022/08/02 12:50:33;;;;;;;1.70;1.60;;;;;;;;;;4896325;29;20132;-46
2022/08/02 12:53:14;;;;;;;3.80;1.58;;;;;;;;;;4897118;29;20045;-47
2022/08/02 12:56:01;;;;;;;3.40;1.70;;;;;;;;;;4897017;29;20123;-46
2022/08/02 12:58:26;;;;;;;3.72;1.70;;;;;;;;;;4896873;29;20095;-44
2022/08/02 13:00:54;;;;;;;3.13;1.75;;;;;;;;;;4896415;29;20028;-46
2022/08/02 13:03:20;;;;;;;2.93;1.30;;;;;;;;;;4897049;29;20085;-44
2022/08/02 13:05:45;;;;;;;2.28;1.40;;;;;;;;;;4896754;29;20437;-44
2022/08/02 13:08:12;;;;;;;5.95;1.40;;;;;;;;;;4896452;29;20052;-43
2022/08/02 13:10:37;;;;;;;6.60;1.60;;;;;;;;;;4896919;29;20119;-43
2022/08/02 13:13:03;;;;;;;1.90;1.20;;;;;;;;;;4896904;29;20120;-48
2022/08/02 13:15:28;;;;;;;3.10;1.35;;;;;;;;;;4896387;29;20087;-44
2022/08/02 13:17:53;;;;;;;1.77;1.13;;;;;;;;;;4896904;29;20037;-42
2022/08/02 13:20:19;;;;;;;1.83;1.13;;;;;;;;;;4896568;29;20367;-45
2022/08/02 13:22:45;;;;;;;2.25;1.20;;;;;;;;;;4895590;29;20044;-48
2022/08/02 13:25:11;;;;;;;1.20;1.10;;;;;;;;;;4896579;29;20063;-44
2022/08/02 13:27:37;;;;;;;6.07;1.75;;;;;;;;;;4896751;29;20056;-45
2022/08/02 13:30:04;;;;;;;1.85;1.38;;;;;;;;;;4896468;29;20062;-44
2022/08/02 13:32:29;;;;;;;5.80;1.40;;;;;;;;;;4896324;29;20032;-47
2022/08/02 13:34:57;;;;;;;3.47;1.60;;;;;;;;;;4896183;29;20497;-52
2022/08/02 13:37:24;;;;;;;1.65;1.30;;;;;;;;;;4896068;29;20036;-51
2022/08/02 13:39:50;;;;;;;1.92;1.33;;;;;;;;;;4896217;29;20119;-51
2022/08/02 13:42:16;;;;;;;3.95;1.48;;;;;;;;;;4896094;29;20032;-50
2022/08/02 13:44:42;;;;;;;1.80;1.40;;;;;;;;;;4895987;29;20040;-44
2022/08/02 13:47:10;;;;;;;2.25;1.67;;;;;;;;;;4895598;29;20035;-50
2022/08/02 13:49:36;;;;;;;2.58;1.40;;;;;;;;;;4896011;29;20406;-53
2022/08/02 13:52:01;;;;;;;0.82;0.82;;;;;;;;;;4896228;29;20033;-45
2022/08/02 13:54:27;;;;;;;1.45;1.35;;;;;;;;;;4896192;29;20394;-48
2022/08/02 13:56:52;;;;;;;4.22;1.70;;;;;;;;;;4896172;29;20446;-44
2022/08/02 13:59:18;;;;;;;1.73;1.60;;;;;;;;;;4895964;29;20504;-46
2022/08/02 14:01:44;;;;;;;4.97;1.98;;;;;;;;;;4896226;29;20704;-52
2022/08/02 14:04:10;;;;;;;4.32;2.42;;;;;;;;;;4895584;29;20035;-46
2022/08/02 14:06:36;;;;;;;1.35;1.25;;;;;;;;;;4895873;29;20025;-44
2022/08/02 14:09:03;;;;;;;3.67;1.80;;;;;;;;;;4895815;29;20040;-46
2022/08/02 14:11:29;;;;;;;2.45;1.50;;;;;;;;;;4895720;29;20036;-43
2022/08/02 14:13:55;;;;;;;1.75;1.50;;;;;;;;;;4895840;29;20112;-48
2022/08/02 14:16:20;;;;;;;1.45;1.35;;;;;;;;;;4895866;29;20603;-43
2022/08/02 14:18:46;;;;;;;1.60;1.50;;;;;;;;;;4895708;29;20088;-43
2022/08/02 14:21:11;;;;;;;2.45;1.60;;;;;;;;;;4896044;29;20043;-51
2022/08/02 14:23:37;;;;;;;2.60;1.42;;;;;;;;;;4895627;29;20024;-48
2022/08/02 14:26:04;;;;;;;1.50;1.40;;;;;;;;;;4895744;29;20037;-43
2022/08/02 14:28:30;;;;;;;5.53;1.30;;;;;;;;;;4895992;29;20101;-48
2022/08/02 14:30:55;;;;;;;8.52;1.70;;;;;;;;;;4895920;29;20047;-49
2022/08/02 14:33:22;;;;;;;2.90;1.58;;;;;;;;;;4895634;29;20092;-44
2022/08/02 14:35:47;;;;;;;3.88;1.50;;;;;;;;;;4895721;29;20033;-44
2022/08/02 14:38:13;;;;;;;1.88;1.40;;;;;;;;;;4895612;29;20020;-54
2022/08/02 14:40:38;;;;;;;3.50;1.40;;;;;;;;;;4895869;29;20032;-44
2022/08/02 14:43:04;;;;;;;2.95;1.50;;;;;;;;;;4895613;29;20036;-54
2022/08/02 14:45:30;;;;;;;2.55;1.88;;;;;;;;;;4895668;29;20036;-50
2022/08/02 14:47:56;;;;;;;1.40;1.30;;;;;;;;;;4895775;29;20385;-44
2022/08/02 14:50:21;;;;;;;7.30;1.75;;;;;;;;;;4895072;29;20063;-48
2022/08/02 14:52:48;;;;;;;4.30;1.52;;;;;;;;;;4895868;29;20051;-56
2022/08/02 14:55:14;;;;;;;3.65;1.20;;;;;;;;;;4895517;29;20107;-50
2022/08/02 14:57:40;;;;;;;2.80;1.50;;;;;;;;;;4895089;29;20024;-51